Time;durP1;ratioP1;P1;durP2;ratioP2;P2;SDS_P1;SDS_P2;PMS_P1;PMS_P2;Temp;Humidity;BMP_temperature;BMP_pressure;BME280_temperature;BME280_humidity;BME280_pressure;Samples;Min_cycle;Max_cycle;Signal;HPM_P1;HPM_P2
2024/03/25 00:00:15;;;;;;;1999.90;999.90;;;9.70;99.90;;;;;;5049720;28;20040;-80
2024/03/25 00:02:41;;;;;;;1999.90;999.90;;;9.80;99.90;;;;;;5051820;28;20040;-80
2024/03/25 00:05:11;;;;;;;1999.90;999.90;;;9.80;99.90;;;;;;5051664;28;20021;-80
2024/03/25 00:07:37;;;;;;;1999.90;999.90;;;9.80;99.90;;;;;;5050169;28;20389;-80
2024/03/25 00:10:06;;;;;;;1999.90;999.90;;;9.80;99.90;;;;;;5031669;28;20033;-80
2024/03/25 00:12:32;;;;;;;1999.90;999.90;;;9.70;99.90;;;;;;5049060;28;20049;-79
2024/03/25 00:14:58;;;;;;;1999.90;999.90;;;9.70;99.90;;;;;;5051775;28;20025;-80
2024/03/25 00:17:24;;;;;;;1999.90;999.90;;;9.80;99.90;;;;;;5043312;28;20038;-79
2024/03/25 00:19:50;;;;;;;1999.90;999.90;;;9.80;99.90;;;;;;5031790;28;20056;-79
2024/03/25 00:22:20;;;;;;;1999.90;999.90;;;9.70;99.90;;;;;;5043208;28;20045;-80
2024/03/25 00:24:47;;;;;;;1999.90;999.90;;;9.70;99.90;;;;;;5051475;28;20025;-80
2024/03/25 00:27:13;;;;;;;1999.90;999.90;;;9.70;99.90;;;;;;5050702;28;20048;-80
2024/03/25 00:29:39;;;;;;;1999.90;999.90;;;9.80;99.90;;;;;;5045773;28;20084;-80
2024/03/25 00:32:06;;;;;;;1999.90;999.90;;;9.70;99.90;;;;;;5033887;28;20045;-80
2024/03/25 00:34:32;;;;;;;1999.90;999.90;;;9.70;99.90;;;;;;5035152;28;20034;-79
2024/03/25 00:36:59;;;;;;;1999.90;999.90;;;9.40;99.90;;;;;;5034758;28;20033;-80
2024/03/25 00:39:29;;;;;;;1999.90;999.90;;;9.40;99.90;;;;;;5034968;28;20557;-80
2024/03/25 00:41:55;;;;;;;1999.90;999.90;;;9.50;99.90;;;;;;5049370;28;20494;-79
2024/03/25 00:44:21;;;;;;;1999.90;999.90;;;9.50;99.90;;;;;;5048715;28;20044;-80
2024/03/25 00:46:47;;;;;;;1999.90;999.90;;;9.50;99.90;;;;;;5046840;28;20033;-80
2024/03/25 00:49:13;;;;;;;1999.90;999.90;;;9.50;99.90;;;;;;5054531;28;20033;-80
2024/03/25 00:51:40;;;;;;;1999.90;999.90;;;9.50;99.90;;;;;;5054374;28;20056;-80
2024/03/25 00:54:06;;;;;;;1999.90;999.90;;;9.50;99.90;;;;;;5054706;28;20029;-80
2024/03/25 00:56:32;;;;;;;1999.90;999.90;;;9.30;99.90;;;;;;5047993;28;20677;-80
2024/03/25 00:59:02;;;;;;;1999.90;999.90;;;9.00;99.90;;;;;;5034601;28;20029;-80
2024/03/25 01:01:29;;;;;;;1999.90;999.90;;;8.80;99.90;;;;;;5044412;28;20037;-80
2024/03/25 01:03:55;;;;;;;1999.90;999.90;;;8.80;99.90;;;;;;5038529;28;20041;-80
2024/03/25 01:06:21;;;;;;;1999.90;999.90;;;8.90;99.90;;;;;;5044053;28;20025;-80
2024/03/25 01:08:47;;;;;;;1999.90;999.90;;;9.10;99.90;;;;;;5035296;28;20037;-80
2024/03/25 01:11:13;;;;;;;1999.90;999.90;;;9.10;99.90;;;;;;5042249;28;20358;-80
2024/03/25 01:13:41;;;;;;;1999.90;999.90;;;9.20;99.90;;;;;;5054296;28;20041;-80
2024/03/25 01:16:07;;;;;;;1999.90;999.90;;;9.10;99.90;;;;;;5053183;28;20037;-80
2024/03/25 01:18:34;;;;;;;1999.90;999.90;;;9.20;99.90;;;;;;5041120;28;20033;-80
2024/03/25 01:21:00;;;;;;;1999.90;999.90;;;9.10;99.90;;;;;;5040618;28;20033;-80
2024/03/25 01:23:26;;;;;;;1999.90;999.90;;;9.00;99.90;;;;;;5036194;28;20485;-80
2024/03/25 01:25:52;;;;;;;1999.90;999.90;;;9.10;99.90;;;;;;5039285;28;20037;-79
2024/03/25 01:28:18;;;;;;;1999.90;999.90;;;8.80;99.90;;;;;;5053788;28;20044;-79
2024/03/25 01:30:44;;;;;;;1999.90;999.90;;;8.50;99.90;;;;;;5039438;28;20041;-80
2024/03/25 01:33:10;;;;;;;1999.90;999.90;;;8.50;99.90;;;;;;5048955;28;20044;-80
2024/03/25 01:35:37;;;;;;;1999.90;999.90;;;8.70;99.90;;;;;;5053716;28;20037;-80
2024/03/25 01:38:03;;;;;;;1999.90;999.90;;;8.80;99.90;;;;;;5052751;28;20463;-80
2024/03/25 01:40:29;;;;;;;1999.90;999.90;;;8.80;99.90;;;;;;5052407;28;20029;-80
2024/03/25 01:43:02;;;;;;;1999.90;999.90;;;8.50;99.90;;;;;;5040692;28;20401;-80
2024/03/25 01:45:30;;;;;;;1999.90;999.90;;;8.20;99.90;;;;;;5035471;28;20034;-80
2024/03/25 01:48:02;;;;;;;1999.90;999.90;;;8.20;99.90;;;;;;5048520;28;20049;-80
2024/03/25 01:50:29;;;;;;;1999.90;999.90;;;8.30;99.90;;;;;;5050971;28;20686;-80
2024/03/25 01:52:56;;;;;;;1999.90;999.90;;;8.20;99.90;;;;;;5034092;28;20505;-80
2024/03/25 01:55:23;;;;;;;1999.90;999.90;;;8.00;99.90;;;;;;5032928;28;20470;-80
2024/03/25 01:57:51;;;;;;;1999.90;999.90;;;7.80;99.90;;;;;;5052515;28;20045;-80
2024/03/25 02:00:18;;;;;;;1999.90;999.90;;;7.90;99.90;;;;;;5051318;28;20029;-80
2024/03/25 02:02:44;;;;;;;1999.90;999.90;;;7.90;99.90;;;;;;5051757;28;20053;-80
2024/03/25 02:05:16;;;;;;;1999.90;999.90;;;8.10;99.90;;;;;;5053234;28;20063;-80
2024/03/25 02:07:43;;;;;;;1999.90;999.90;;;8.00;99.90;;;;;;5027158;28;20033;-80
2024/03/25 02:10:09;;;;;;;1999.90;999.90;;;8.00;99.90;;;;;;5052853;28;20389;-80
2024/03/25 02:12:39;;;;;;;1999.90;999.90;;;7.90;99.90;;;;;;5032914;28;20046;-80
2024/03/25 02:15:05;;;;;;;1999.90;999.90;;;7.90;99.90;;;;;;5031682;28;20029;-79
2024/03/25 02:17:31;;;;;;;1999.90;999.90;;;8.00;99.90;;;;;;5052141;28;20033;-81
2024/03/25 02:19:58;;;;;;;1999.90;999.90;;;8.00;99.90;;;;;;5045351;28;20474;-80
2024/03/25 02:22:24;;;;;;;39.88;37.92;;;7.90;99.90;;;;;;5041894;28;20052;-80
2024/03/25 02:24:51;;;;;;;63.08;59.85;;;7.70;99.90;;;;;;5033055;28;20481;-80
2024/03/25 02:27:17;;;;;;;553.65;301.02;;;7.80;99.90;;;;;;5045115;28;20458;-80
2024/03/25 02:29:44;;;;;;;576.90;323.15;;;8.00;99.90;;;;;;5032630;28;20037;-80
2024/03/25 02:32:10;;;;;;;59.45;56.10;;;8.10;99.90;;;;;;5042234;28;20045;-80
2024/03/25 02:34:45;;;;;;;83.50;79.45;;;7.90;99.90;;;;;;5032824;28;20390;-80
2024/03/25 02:37:11;;;;;;;61.90;58.90;;;7.90;99.90;;;;;;5049387;28;20044;-81
2024/03/25 02:39:37;;;;;;;44.40;42.28;;;8.00;99.90;;;;;;5036580;28;20048;-80
2024/03/25 02:42:04;;;;;;;47.63;45.22;;;8.10;99.90;;;;;;5046673;28;20037;-79
2024/03/25 02:44:33;;;;;;;39.22;37.38;;;7.90;99.90;;;;;;5051268;28;20037;-80
2024/03/25 02:46:59;;;;;;;45.35;43.15;;;7.50;99.90;;;;;;5044303;28;20047;-80
2024/03/25 02:49:25;;;;;;;68.93;65.63;;;7.60;99.90;;;;;;5052350;28;20052;-80
2024/03/25 02:51:51;;;;;;;37.75;35.95;;;7.70;99.90;;;;;;5051048;28;20044;-81
2024/03/25 02:54:17;;;;;;;55.58;52.90;;;7.90;99.90;;;;;;5052124;28;20044;-80
2024/03/25 02:56:44;;;;;;;61.92;58.92;;;8.00;99.90;;;;;;5052171;28;20033;-80
2024/03/25 02:59:10;;;;;;;41.00;38.97;;;7.80;99.90;;;;;;5051852;28;20029;-80
2024/03/25 03:01:36;;;;;;;52.65;50.10;;;7.70;99.90;;;;;;5044218;28;20052;-81
2024/03/25 03:04:02;;;;;;;30.90;29.40;;;7.60;99.90;;;;;;5028859;28;20036;-81
2024/03/25 03:06:28;;;;;;;42.30;40.28;;;7.60;99.90;;;;;;5031822;28;20041;-81
2024/03/25 03:08:54;;;;;;;77.30;73.45;;;7.70;99.90;;;;;;5031659;28;20048;-81
2024/03/25 03:11:20;;;;;;;78.13;74.28;;;7.80;99.90;;;;;;5039188;28;20041;-81
2024/03/25 03:13:46;;;;;;;30.73;29.10;;;7.70;99.90;;;;;;5029769;28;20113;-79
2024/03/25 03:16:12;;;;;;;62.60;59.58;;;7.40;99.90;;;;;;5039026;28;20033;-80
2024/03/25 03:18:39;;;;;;;27.75;26.42;;;7.20;99.90;;;;;;5051411;28;20048;-80
2024/03/25 03:21:06;;;;;;;33.38;31.63;;;6.90;99.90;;;;;;5049893;28;20044;-79
2024/03/25 03:23:32;;;;;;;46.97;44.55;;;6.90;99.90;;;;;;5034889;28;20390;-81
2024/03/25 03:25:59;;;;;;;35.38;33.50;;;7.00;99.90;;;;;;5037093;28;20040;-80
2024/03/25 03:28:25;;;;;;;38.38;36.58;;;6.80;99.90;;;;;;5045514;28;20038;-80
2024/03/25 03:30:51;;;;;;;34.13;32.45;;;6.80;99.90;;;;;;5042949;28;20048;-80
2024/03/25 03:33:18;;;;;;;32.85;31.33;;;7.00;99.90;;;;;;5050517;28;20045;-80
2024/03/25 03:35:44;;;;;;;78.13;74.38;;;7.20;99.90;;;;;;5050307;28;20029;-80
2024/03/25 03:38:10;;;;;;;22.92;21.88;;;7.30;99.90;;;;;;5034140;28;20029;-80
2024/03/25 03:40:36;;;;;;;42.28;40.28;;;7.40;99.90;;;;;;5035983;28;20025;-80
2024/03/25 03:43:02;;;;;;;51.75;49.15;;;7.40;99.90;;;;;;5052642;28;20507;-79
2024/03/25 03:45:33;;;;;;;63.10;60.10;;;7.40;99.90;;;;;;5046598;28;20060;-81
2024/03/25 03:47:59;;;;;;;55.20;52.58;;;7.30;99.90;;;;;;5042674;28;20381;-80
2024/03/25 03:50:25;;;;;;;71.00;67.57;;;7.50;99.90;;;;;;5033548;28;20469;-77
2024/03/25 03:52:51;;;;;;;58.70;55.85;;;7.50;99.90;;;;;;5052113;28;20029;-79
2024/03/25 03:55:17;;;;;;;31.58;30.10;;;7.70;99.90;;;;;;5049288;28;20032;-79
2024/03/25 03:57:43;;;;;;;22.90;21.65;;;7.70;99.90;;;;;;5032175;28;20033;-80
2024/03/25 04:00:11;;;;;;;51.72;49.17;;;7.60;99.90;;;;;;5031349;28;20029;-79
2024/03/25 04:02:38;;;;;;;71.20;67.75;;;7.40;99.90;;;;;;5012771;28;20049;-80
2024/03/25 04:05:04;;;;;;;27.52;26.15;;;7.30;99.90;;;;;;5015656;28;20503;-80
2024/03/25 04:07:32;;;;;;;27.80;26.50;;;7.10;99.90;;;;;;5054529;28;20040;-80
2024/03/25 04:09:59;;;;;;;70.60;67.20;;;7.10;99.90;;;;;;5043073;28;20041;-80
2024/03/25 04:12:26;;;;;;;53.35;50.83;;;7.00;99.90;;;;;;5035152;28;20049;-78
2024/03/25 04:14:55;;;;;;;52.78;50.28;;;6.90;99.90;;;;;;5036385;28;20041;-79
2024/03/25 04:17:21;;;;;;;26.75;25.50;;;6.90;99.90;;;;;;5050094;28;20038;-79
2024/03/25 04:19:50;;;;;;;37.63;35.83;;;7.00;99.90;;;;;;5034430;28;20034;-79
2024/03/25 04:22:17;;;;;;;21.52;20.52;;;6.90;99.90;;;;;;5038400;28;20049;-79
2024/03/25 04:24:43;;;;;;;38.92;36.92;;;7.00;99.90;;;;;;5035420;28;20036;-79
2024/03/25 04:27:10;;;;;;;40.47;38.53;;;7.10;99.90;;;;;;5040410;28;20037;-79
2024/03/25 04:29:36;;;;;;;47.60;45.25;;;7.00;99.90;;;;;;5033523;28;20029;-79
2024/03/25 04:32:02;;;;;;;39.22;36.95;;;6.90;99.90;;;;;;5034627;28;20402;-79
2024/03/25 04:34:29;;;;;;;37.67;35.72;;;6.80;99.90;;;;;;5034570;28;20037;-79
2024/03/25 04:36:58;;;;;;;29.20;27.85;;;6.70;99.90;;;;;;5035768;28;20053;-79
2024/03/25 04:39:24;;;;;;;32.70;31.13;;;6.90;99.90;;;;;;5044984;28;20041;-78
2024/03/25 04:41:50;;;;;;;31.23;29.77;;;6.90;99.90;;;;;;5048312;28;20029;-79
2024/03/25 04:44:18;;;;;;;20.65;19.67;;;6.90;99.90;;;;;;5054971;28;20036;-79
2024/03/25 04:46:44;;;;;;;19.08;18.00;;;7.00;99.90;;;;;;5037351;28;20044;-79
2024/03/25 04:49:10;;;;;;;22.65;21.60;;;7.10;99.90;;;;;;5034387;28;20482;-79
2024/03/25 04:51:37;;;;;;;28.42;26.98;;;6.90;99.90;;;;;;5034338;28;20040;-78
2024/03/25 04:54:03;;;;;;;22.70;21.58;;;6.70;99.90;;;;;;5034796;28;20053;-79
2024/03/25 04:56:31;;;;;;;20.35;19.40;;;6.40;99.90;;;;;;5045521;28;20381;-80
2024/03/25 04:59:01;;;;;;;18.13;17.33;;;6.40;99.90;;;;;;5053558;28;20045;-79
2024/03/25 05:01:28;;;;;;;18.63;17.75;;;6.50;99.90;;;;;;5044815;28;20040;-79
2024/03/25 05:03:54;;;;;;;20.80;19.80;;;6.40;99.90;;;;;;5040127;28;20478;-79
2024/03/25 05:06:20;;;;;;;21.20;19.98;;;6.40;99.90;;;;;;5034204;28;20386;-78
2024/03/25 05:08:46;;;;;;;31.15;29.70;;;6.20;99.90;;;;;;5036684;28;20029;-79
2024/03/25 05:11:12;;;;;;;30.08;28.30;;;6.00;99.90;;;;;;5048881;28;20492;-79
2024/03/25 05:13:38;;;;;;;19.33;18.33;;;5.90;99.90;;;;;;5035936;28;20045;-79
2024/03/25 05:16:05;;;;;;;19.75;18.85;;;5.90;99.90;;;;;;5038913;28;20044;-79
2024/03/25 05:18:31;;;;;;;22.02;20.25;;;6.00;99.90;;;;;;5054162;28;20033;-79
2024/03/25 05:20:57;;;;;;;28.48;27.13;;;6.10;99.90;;;;;;5049015;28;20037;-79
2024/03/25 05:23:23;;;;;;;32.03;30.40;;;5.90;99.90;;;;;;5036408;28;20390;-79
2024/03/25 05:25:50;;;;;;;35.58;33.88;;;6.00;99.90;;;;;;5042009;28;20037;-79
2024/03/25 05:28:16;;;;;;;61.17;58.17;;;5.90;99.90;;;;;;5054159;28;20481;-79
2024/03/25 05:30:42;;;;;;;102.27;97.17;;;5.80;99.90;;;;;;5053102;28;20040;-78
2024/03/25 05:33:08;;;;;;;56.67;53.97;;;5.80;99.90;;;;;;5053589;28;20032;-79
2024/03/25 05:35:36;;;;;;;36.90;35.03;;;5.70;99.90;;;;;;5053647;28;20068;-79
2024/03/25 05:38:05;;;;;;;47.67;45.22;;;5.70;99.90;;;;;;5040767;28;20057;-79
2024/03/25 05:40:31;;;;;;;34.90;33.00;;;5.80;99.90;;;;;;5033304;28;20034;-79
2024/03/25 05:42:58;;;;;;;30.87;29.43;;;5.70;99.90;;;;;;5044163;28;20378;-79
2024/03/25 05:45:24;;;;;;;40.63;38.30;;;5.80;99.90;;;;;;5053132;28;20397;-79
2024/03/25 05:47:50;;;;;;;34.70;33.00;;;5.80;99.90;;;;;;5053091;28;20033;-80
2024/03/25 05:50:16;;;;;;;34.43;32.80;;;5.90;99.90;;;;;;5033413;28;20029;-79
2024/03/25 05:52:42;;;;;;;29.73;28.33;;;5.90;99.90;;;;;;5032918;28;20044;-80
2024/03/25 05:55:10;;;;;;;41.92;39.83;;;5.90;99.90;;;;;;5032592;28;20478;-79
2024/03/25 05:57:36;;;;;;;27.10;25.80;;;5.90;99.90;;;;;;5033133;28;20037;-75
2024/03/25 06:00:03;;;;;;;60.03;57.00;;;6.00;99.90;;;;;;5031375;28;20046;-69
2024/03/25 06:02:30;;;;;;;53.38;50.88;;;6.00;99.90;;;;;;5032650;28;20037;-74
2024/03/25 06:04:59;;;;;;;88.20;83.95;;;6.20;99.90;;;;;;5033301;28;20060;-74
2024/03/25 06:07:25;;;;;;;46.50;44.28;;;6.30;99.90;;;;;;5031967;28;20021;-77
2024/03/25 06:09:51;;;;;;;57.33;54.58;;;7.00;99.90;;;;;;5040550;28;20040;-75
2024/03/25 06:12:17;;;;;;;58.53;55.75;;;6.80;99.90;;;;;;5049236;28;20029;-74
2024/03/25 06:14:44;;;;;;;65.88;62.70;;;6.60;99.90;;;;;;5052526;28;20421;-74
2024/03/25 06:17:10;;;;;;;55.97;52.67;;;6.60;99.90;;;;;;5041220;28;20037;-74
2024/03/25 06:19:36;;;;;;;70.85;67.40;;;6.40;99.90;;;;;;5034337;28;20029;-74
2024/03/25 06:22:03;;;;;;;43.28;39.70;;;6.10;99.90;;;;;;5032288;28;20053;-75
2024/03/25 06:24:29;;;;;;;56.60;53.75;;;6.50;99.90;;;;;;5032645;28;20390;-74
2024/03/25 06:26:55;;;;;;;58.45;55.60;;;6.10;99.90;;;;;;5032980;28;20029;-74
2024/03/25 06:29:22;;;;;;;52.10;49.42;;;5.90;99.90;;;;;;5032637;28;20033;-74
2024/03/25 06:34:32;;;;;;;57.75;54.90;;;5.80;99.90;;;;;;5039534;28;20505;-75
2024/03/25 06:36:58;;;;;;;59.72;56.58;;;5.90;99.90;;;;;;5048066;28;20033;-74
2024/03/25 06:39:25;;;;;;;58.92;56.13;;;6.00;99.90;;;;;;5032786;28;20033;-75
2024/03/25 06:41:51;;;;;;;81.22;77.32;;;6.10;99.90;;;;;;5032300;28;20034;-75
2024/03/25 06:44:17;;;;;;;53.53;50.88;;;6.20;99.90;;;;;;5032494;28;20040;-74
2024/03/25 06:46:43;;;;;;;36.78;34.80;;;6.10;99.90;;;;;;5044323;28;20037;-74
2024/03/25 06:49:09;;;;;;;46.87;44.53;;;6.00;99.90;;;;;;5052571;28;20052;-74
2024/03/25 06:51:35;;;;;;;54.17;51.13;;;5.90;99.90;;;;;;5052254;28;20044;-74
2024/03/25 06:54:02;;;;;;;37.83;35.67;;;5.90;99.90;;;;;;5039011;28;20045;-74
2024/03/25 06:56:28;;;;;;;55.90;53.22;;;6.00;99.90;;;;;;5042300;28;20045;-74
2024/03/25 06:58:54;;;;;;;46.63;44.25;;;6.00;99.90;;;;;;5052357;28;20024;-74
2024/03/25 07:01:20;;;;;;;56.85;53.80;;;6.00;99.90;;;;;;5051143;28;20029;-74
2024/03/25 07:03:47;;;;;;;54.70;52.03;;;6.10;99.90;;;;;;5044342;28;20036;-75
2024/03/25 07:06:13;;;;;;;59.90;57.00;;;6.20;99.90;;;;;;5040532;28;20044;-74
2024/03/25 07:08:39;;;;;;;38.08;36.22;;;6.20;99.90;;;;;;5052280;28;20029;-74
2024/03/25 07:11:05;;;;;;;47.30;45.05;;;6.30;99.90;;;;;;5051764;28;20036;-72
2024/03/25 07:13:32;;;;;;;62.92;59.83;;;6.30;99.90;;;;;;5052103;28;20037;-73
2024/03/25 07:15:58;;;;;;;57.10;53.85;;;6.40;99.90;;;;;;5051233;28;20041;-74
2024/03/25 07:18:24;;;;;;;48.90;46.38;;;6.50;99.90;;;;;;5052300;28;20021;-74
2024/03/25 07:20:50;;;;;;;75.40;71.78;;;6.60;99.90;;;;;;5051583;28;20477;-74
2024/03/25 07:23:16;;;;;;;83.88;79.78;;;6.70;99.90;;;;;;5052164;28;20041;-74
2024/03/25 07:25:42;;;;;;;53.30;50.55;;;6.70;99.90;;;;;;5051714;28;20025;-74
2024/03/25 07:28:09;;;;;;;48.45;45.20;;;6.70;99.90;;;;;;5050517;28;20032;-74
2024/03/25 07:30:35;;;;;;;47.90;45.30;;;6.70;99.90;;;;;;5051150;28;20026;-74
2024/03/25 07:33:01;;;;;;;46.35;44.08;;;6.70;99.90;;;;;;5052172;28;20025;-74
2024/03/25 07:35:27;;;;;;;39.58;37.08;;;6.90;99.90;;;;;;5051465;28;20441;-74
2024/03/25 07:37:53;;;;;;;49.45;47.10;;;7.00;99.90;;;;;;5053103;28;20044;-74
2024/03/25 07:40:19;;;;;;;63.78;60.72;;;7.10;99.90;;;;;;5044246;28;20093;-74
2024/03/25 07:42:45;;;;;;;66.47;63.28;;;7.20;99.90;;;;;;5035817;28;20034;-74
2024/03/25 07:45:11;;;;;;;57.55;54.58;;;7.30;99.90;;;;;;5035171;28;20029;-74
2024/03/25 07:47:38;;;;;;;84.25;80.20;;;7.30;99.90;;;;;;5054556;28;20393;-74
2024/03/25 07:50:05;;;;;;;74.63;70.85;;;7.40;99.90;;;;;;5056078;28;20389;-74
2024/03/25 07:52:31;;;;;;;73.03;69.32;;;7.60;99.90;;;;;;5055531;28;20037;-74
2024/03/25 07:54:58;;;;;;;87.63;83.38;;;7.80;99.90;;;;;;5055809;28;20048;-74
2024/03/25 07:57:24;;;;;;;75.95;72.05;;;7.80;99.90;;;;;;5054928;28;20070;-74
2024/03/25 07:59:50;;;;;;;68.32;65.05;;;7.90;99.90;;;;;;5055764;28;20040;-74
2024/03/25 08:02:16;;;;;;;45.85;43.67;;;8.00;99.90;;;;;;5054632;28;20041;-73
2024/03/25 08:04:42;;;;;;;46.22;43.88;;;8.10;99.90;;;;;;5055848;28;20033;-73
2024/03/25 08:07:08;;;;;;;34.45;32.63;;;8.30;99.90;;;;;;5055038;28;20037;-74
2024/03/25 08:09:34;;;;;;;25.70;24.42;;;8.40;99.90;;;;;;5054391;28;20040;-74
2024/03/25 08:12:00;;;;;;;26.65;25.40;;;8.50;99.90;;;;;;5054720;28;20040;-74
2024/03/25 08:14:26;;;;;;;28.58;27.15;;;8.60;99.90;;;;;;5055496;28;20045;-73
2024/03/25 08:16:52;;;;;;;23.33;22.23;;;8.70;99.90;;;;;;5054762;28;20033;-74
2024/03/25 08:19:18;;;;;;;28.92;27.33;;;8.70;99.90;;;;;;5055253;28;20036;-74
2024/03/25 08:21:44;;;;;;;39.40;37.53;;;8.60;99.90;;;;;;5054915;28;20044;-74
2024/03/25 08:24:11;;;;;;;41.95;39.78;;;8.70;99.90;;;;;;5055234;28;20052;-74
2024/03/25 08:26:37;;;;;;;48.47;45.88;;;8.70;99.90;;;;;;5054502;28;20040;-74
2024/03/25 08:29:03;;;;;;;48.15;45.08;;;8.80;99.90;;;;;;5055316;28;20437;-74
2024/03/25 08:31:29;;;;;;;47.00;44.80;;;8.80;99.90;;;;;;5054192;28;20392;-75
2024/03/25 08:33:56;;;;;;;39.10;37.22;;;8.90;99.90;;;;;;5055453;28;20209;-75
2024/03/25 08:36:22;;;;;;;26.70;24.95;;;9.10;99.90;;;;;;5054711;28;20064;-75
2024/03/25 08:38:48;;;;;;;36.42;34.60;;;9.10;99.90;;;;;;5054991;28;20040;-74
2024/03/25 08:41:15;;;;;;;38.90;36.60;;;9.20;99.90;;;;;;5035248;28;20057;-75
2024/03/25 08:43:41;;;;;;;50.08;47.25;;;9.20;99.90;;;;;;5035640;28;20052;-74
2024/03/25 08:46:07;;;;;;;49.35;46.55;;;9.20;99.90;;;;;;5042355;28;20041;-74
2024/03/25 08:48:33;;;;;;;67.65;64.22;;;9.20;99.90;;;;;;5054824;28;20033;-75
2024/03/25 08:50:59;;;;;;;38.47;36.58;;;9.30;99.90;;;;;;5054300;28;20381;-74
2024/03/25 08:53:25;;;;;;;29.67;28.25;;;9.20;99.90;;;;;;5054941;28;20131;-75
2024/03/25 08:55:51;;;;;;;29.83;28.40;;;9.40;99.90;;;;;;5053769;28;20501;-74
2024/03/25 08:58:17;;;;;;;64.30;61.00;;;9.60;99.90;;;;;;5054698;28;20028;-75
2024/03/25 09:00:43;;;;;;;27.88;26.17;;;9.60;99.90;;;;;;5053475;28;20037;-75
2024/03/25 09:03:10;;;;;;;31.88;30.30;;;9.70;99.90;;;;;;5054503;28;20036;-75
2024/03/25 09:05:38;;;;;;;30.70;29.05;;;9.80;99.90;;;;;;5054202;28;20064;-75
2024/03/25 09:08:11;;;;;;;29.08;27.67;;;9.90;99.90;;;;;;5054283;28;20043;-75
2024/03/25 09:13:23;;;;;;;54.83;52.10;;;10.20;99.90;;;;;;5061129;28;20056;-74
2024/03/25 09:15:49;;;;;;;68.25;64.70;;;10.30;99.90;;;;;;5053322;28;20513;-74
2024/03/25 09:18:16;;;;;;;43.80;41.70;;;10.20;99.90;;;;;;5054399;28;20187;-75
2024/03/25 09:20:42;;;;;;;91.78;86.93;;;10.00;99.90;;;;;;5053680;28;20045;-75
2024/03/25 09:23:09;;;;;;;42.63;40.20;;;10.00;99.90;;;;;;5052445;28;20049;-75
2024/03/25 09:25:35;;;;;;;113.07;107.60;;;10.10;99.90;;;;;;5053806;28;20048;-75
2024/03/25 09:28:01;;;;;;;111.07;105.60;;;10.10;99.90;;;;;;5053082;28;20024;-75
2024/03/25 09:30:27;;;;;;;103.07;97.82;;;10.20;99.90;;;;;;5053109;28;20051;-74
2024/03/25 09:32:53;;;;;;;99.57;94.72;;;10.30;99.90;;;;;;5054008;28;20381;-74
2024/03/25 09:35:20;;;;;;;109.45;104.03;;;10.30;99.90;;;;;;5053588;28;20041;-75
2024/03/25 09:37:46;;;;;;;75.45;71.43;;;10.40;99.90;;;;;;5053812;28;20048;-75
2024/03/25 09:40:12;;;;;;;51.95;49.42;;;10.50;99.90;;;;;;5058436;28;20397;-75
2024/03/25 09:42:48;;;;;;;51.25;48.80;;;10.60;99.90;;;;;;5032682;28;20030;-75
2024/03/25 09:45:18;;;;;;;54.67;51.95;;;10.50;99.90;;;;;;5033569;28;20025;-75
2024/03/25 09:47:47;;;;;;;37.78;35.85;;;10.60;99.90;;;;;;5053754;28;20036;-75
2024/03/25 09:50:19;;;;;;;89.80;85.38;;;10.70;99.90;;;;;;5053038;28;20040;-75
2024/03/25 09:52:53;;;;;;;90.20;85.88;;;10.80;99.90;;;;;;5053237;28;20037;-75
2024/03/25 09:55:20;;;;;;;110.55;105.05;;;11.00;99.90;;;;;;5051885;28;20033;-75
2024/03/25 09:57:46;;;;;;;1999.90;999.90;;;11.00;99.90;;;;;;5053649;28;20029;-73
2024/03/25 10:00:14;;;;;;;1999.90;999.90;;;11.00;99.90;;;;;;5052485;28;20416;-74
2024/03/25 10:02:40;;;;;;;1999.90;999.90;;;11.20;99.90;;;;;;5028750;28;20049;-75
2024/03/25 10:05:07;;;;;;;1999.90;999.90;;;11.20;99.90;;;;;;5028861;28;20048;-75
2024/03/25 10:07:33;;;;;;;1999.90;999.90;;;11.30;99.90;;;;;;5051596;28;20025;-75
2024/03/25 10:09:59;;;;;;;1999.90;999.90;;;11.40;99.90;;;;;;5053478;28;20481;-75
2024/03/25 10:12:25;;;;;;;1999.90;999.90;;;11.50;99.90;;;;;;5052890;28;20029;-75
2024/03/25 10:14:51;;;;;;;1999.90;999.90;;;11.40;99.90;;;;;;5053391;28;20056;-75
2024/03/25 10:17:17;;;;;;;1999.90;999.90;;;11.40;99.90;;;;;;5052306;28;20521;-75
2024/03/25 10:19:44;;;;;;;1999.90;999.90;;;11.40;99.90;;;;;;5053210;28;20048;-75
2024/03/25 10:22:10;;;;;;;1999.90;999.90;;;11.40;99.90;;;;;;5051868;28;20049;-74
2024/03/25 10:24:42;;;;;;;1999.90;999.90;;;11.40;99.90;;;;;;5053208;28;20036;-75
2024/03/25 10:27:19;;;;;;;1999.90;999.90;;;11.60;99.90;;;;;;5052457;28;20028;-74
2024/03/25 10:29:55;;;;;;;1999.90;999.90;;;11.60;99.90;;;;;;5053043;28;20387;-74
2024/03/25 10:32:21;;;;;;;1999.90;999.90;;;11.80;99.90;;;;;;5050559;28;20401;-74
2024/03/25 10:34:47;;;;;;;1999.90;999.90;;;11.80;99.90;;;;;;5051369;28;20088;-74
2024/03/25 10:37:14;;;;;;;1999.90;999.90;;;11.80;99.90;;;;;;5035425;28;20029;-75
2024/03/25 10:39:47;;;;;;;1999.90;999.90;;;11.90;99.90;;;;;;5030760;28;20033;-74
2024/03/25 10:42:15;;;;;;;1999.90;999.90;;;12.20;99.90;;;;;;5049055;28;20037;-74
2024/03/25 10:44:41;;;;;;;1999.90;999.90;;;12.20;99.90;;;;;;5052760;28;20032;-75
2024/03/25 10:47:08;;;;;;;1999.90;999.90;;;12.20;99.90;;;;;;5050559;28;20055;-74
2024/03/25 10:49:43;;;;;;;1999.90;999.90;;;12.20;99.90;;;;;;5051434;28;20366;-75
2024/03/25 10:52:09;;;;;;;1999.90;999.90;;;12.30;99.90;;;;;;5050666;28;20385;-75
2024/03/25 10:54:35;;;;;;;1999.90;999.90;;;12.40;99.90;;;;;;5051338;28;20040;-74
2024/03/25 10:57:01;;;;;;;1999.90;999.90;;;12.50;99.90;;;;;;5050923;28;20033;-74
2024/03/25 10:59:27;;;;;;;1999.90;999.90;;;12.50;99.90;;;;;;5051112;28;20029;-75
2024/03/25 11:01:53;;;;;;;1999.90;999.90;;;12.30;99.90;;;;;;5050206;28;20044;-74
2024/03/25 11:04:20;;;;;;;1999.90;999.90;;;12.20;99.90;;;;;;5052642;28;20033;-74
2024/03/25 11:06:46;;;;;;;1999.90;999.90;;;12.20;99.90;;;;;;5050374;28;20037;-74
2024/03/25 11:09:25;;;;;;;1999.90;999.90;;;12.20;99.90;;;;;;5052290;28;20358;-74
2024/03/25 11:11:52;;;;;;;1999.90;999.90;;;12.40;99.90;;;;;;5051371;28;20029;-75
2024/03/25 11:14:19;;;;;;;1999.90;999.90;;;12.60;99.90;;;;;;5051813;28;20029;-74
2024/03/25 11:16:54;;;;;;;1999.90;999.90;;;12.70;99.90;;;;;;5051362;28;20056;-75
2024/03/25 11:19:21;;;;;;;1999.90;999.90;;;12.80;99.90;;;;;;5051988;28;20033;-74
2024/03/25 11:21:47;;;;;;;1999.90;999.90;;;12.90;99.90;;;;;;5051570;28;20389;-74
2024/03/25 11:24:13;;;;;;;1999.90;999.90;;;12.80;99.90;;;;;;5052178;28;20469;-74
2024/03/25 11:26:42;;;;;;;1999.90;999.90;;;12.90;99.90;;;;;;5051829;28;20033;-74
2024/03/25 11:29:08;;;;;;;1999.90;999.90;;;12.90;99.90;;;;;;5051970;28;20032;-74
2024/03/25 11:31:35;;;;;;;1999.90;999.90;;;12.90;99.90;;;;;;5051258;28;20040;-74
2024/03/25 11:34:05;;;;;;;1999.90;999.90;;;12.90;99.90;;;;;;5050145;28;20045;-75
2024/03/25 11:36:31;;;;;;;1999.90;999.90;;;13.00;99.90;;;;;;5051591;28;20053;-74
2024/03/25 11:39:04;;;;;;;1999.90;999.90;;;13.10;99.90;;;;;;5051890;28;20032;-74
2024/03/25 11:41:33;;;;;;;1999.90;999.90;;;13.00;99.90;;;;;;5031484;28;20050;-74
2024/03/25 11:44:00;;;;;;;1999.90;999.90;;;12.90;99.90;;;;;;5032169;28;20052;-75
2024/03/25 11:46:26;;;;;;;1999.90;999.90;;;12.90;99.90;;;;;;5041682;28;20040;-74
2024/03/25 11:48:55;;;;;;;1999.90;999.90;;;13.00;99.90;;;;;;5051675;28;20029;-75
2024/03/25 11:51:21;;;;;;;1999.90;999.90;;;13.20;99.90;;;;;;5050202;28;20033;-74
2024/03/25 11:53:47;;;;;;;1999.90;999.90;;;13.40;99.90;;;;;;5052057;28;20029;-74
2024/03/25 11:56:14;;;;;;;1999.90;999.90;;;13.40;99.90;;;;;;5051496;28;20401;-74
2024/03/25 11:58:40;;;;;;;1999.90;999.90;;;13.40;99.90;;;;;;5050695;28;20025;-74
2024/03/25 12:01:08;;;;;;;1999.90;999.90;;;13.50;99.90;;;;;;5042967;28;20050;-74
2024/03/25 12:03:34;;;;;;;1999.90;999.90;;;13.60;99.90;;;;;;5030892;28;20045;-74
2024/03/25 12:06:01;;;;;;;1999.90;999.90;;;13.70;99.90;;;;;;5038301;28;20033;-74
2024/03/25 12:08:27;;;;;;;1999.90;999.90;;;13.90;99.90;;;;;;5051737;28;20052;-74
2024/03/25 12:13:42;;;;;;;1999.90;999.90;;;14.10;99.90;;;;;;5056150;28;20390;-74
2024/03/25 12:16:08;;;;;;;1999.90;999.90;;;14.20;99.90;;;;;;5050308;28;20531;-74
2024/03/25 12:18:36;;;;;;;1999.90;999.90;;;14.20;99.90;;;;;;5050245;28;20025;-74
2024/03/25 12:21:05;;;;;;;1999.90;999.90;;;14.30;99.90;;;;;;5050989;28;20029;-74
2024/03/25 12:23:32;;;;;;;1999.90;999.90;;;14.40;99.90;;;;;;5051824;28;20385;-75
2024/03/25 12:26:01;;;;;;;1999.90;999.90;;;14.40;99.90;;;;;;5054813;28;20029;-75
2024/03/25 12:28:27;;;;;;;1999.90;999.90;;;14.40;99.90;;;;;;5055404;28;20045;-76